Dr.kaiyo — JD2325 — position and weather

sailwx.info

Track history (hours):
 
Tides and Currents Weather Stations Pressure Air Temp Water Temp Dewpoint Dewpoint Depression Visibility Wind Speed Wind Dir Waves Ship Positions

Dr.kaiyo

Last reported at 2017-Jan-23 05:24 UTC. Time now 2017-Jan-23 19:02 UTC.
Position N 34°41' E 135°12'.

Length 31 m.

Type: Other ship. MMSI: 431301823.

Date/timePositionNaut miles runAvg speedWind from/ knotsBaromVisibWave heightAir tempDewpointWater temp
2017-Jan-23 05:24N 34°41' E 135°12'4 5.2
2017-Jan-23 04:33N 34°38' E 135°16'4 3.9
2017-Jan-23 03:32N 34°41' E 135°19'2 2.5
2017-Jan-23 02:34N 34°39' E 135°18'1 1.2
2017-Jan-23 01:33N 34°39' E 135°20'6 6.4
2017-Jan-23 00:33N 34°41' E 135°13'1 0.6
2017-Jan-22 23:33N 34°41' E 135°12'  
2017-Jan-20 05:33N 34°42' E 135°13'7 7.5
2017-Jan-20 04:33N 34°37' E 135°06'1010.0
2017-Jan-20 03:33N 34°28' E 134°60'9 9.5
2017-Jan-20 02:34N 34°32' E 135°10'9 8.7
2017-Jan-20 01:33N 34°32' E 135°21'8 7.9
2017-Jan-20 00:33N 34°40' E 135°21'6 5.7
2017-Jan-19 23:33N 34°41' E 135°14'1 0.1
2017-Jan-19 05:06N 34°41' E 135°12'3 5.9
2017-Jan-19 04:33N 34°40' E 135°16'3 3.4
2017-Jan-19 03:33N 34°40' E 135°20'5 5.3
2017-Jan-19 02:33N 34°35' E 135°17'1212.1
2017-Jan-19 01:32N 34°27' E 135°05'1313.4
2017-Jan-19 00:33N 34°40' E 135°11'2 2.1
2017-Jan-18 23:33N 34°41' E 135°12'0 0.0
2017-Jan-18 05:29N 34°41' E 135°12'6 6.6
2017-Jan-18 04:32N 34°36' E 135°16'5 4.6
2017-Jan-18 03:33N 34°35' E 135°21'3 3.3
2017-Jan-18 02:33N 34°33' E 135°18'1211.9
2017-Jan-18 01:34N 34°28' E 135°05'1212.1
2017-Jan-18 00:33N 34°39' E 135°11'2 2.3
2017-Jan-17 23:33N 34°41' E 135°12'0 0.0
2017-Jan-17 05:33N 34°41' E 135°12'6 6.3
2017-Jan-17 04:33N 34°35' E 135°14'4 4.4
2017-Jan-17 03:33N 34°38' E 135°11'3 3.0
2017-Jan-17 02:33N 34°36' E 135°08'7 7.4
2017-Jan-17 01:32N 34°29' E 135°08'1111.3
2017-Jan-17 00:33N 34°39' E 135°11'2 2.2
2017-Jan-16 23:33N 34°41' E 135°12'0 0.0
2017-Jan-16 05:32N 34°41' E 135°12'7 7.1
2017-Jan-16 04:33N 34°35' E 135°15'5 4.9
2017-Jan-16 03:31N 34°32' E 135°20'3 3.4
2017-Jan-16 02:33N 34°31' E 135°16'1110.7
2017-Jan-16 01:33N 34°30' E 135°03'1313.2
2017-Jan-16 00:33N 34°41' E 135°13'1 0.6
2017-Jan-15 23:33N 34°41' E 135°12'  
Track history (hours):
 
Tides and Currents Weather Stations Pressure Air Temp Water Temp Dewpoint Dewpoint Depression Visibility Wind Speed Wind Dir Waves Ship Positions

Dr.kaiyo

Last reported at 2017-Jan-23 05:24 UTC. Time now 2017-Jan-23 19:02 UTC.
Position N 34°41' E 135°12'.

Length 31 m.

Type: Other ship. MMSI: 431301823.

Date/timePositionNaut miles runAvg speedWind from/ knotsBaromVisibWave heightAir tempDewpointWater temp
2017-Jan-23 05:24N 34°41' E 135°12'4 5.2
2017-Jan-23 04:33N 34°38' E 135°16'4 3.9
2017-Jan-23 03:32N 34°41' E 135°19'2 2.5
2017-Jan-23 02:34N 34°39' E 135°18'1 1.2
2017-Jan-23 01:33N 34°39' E 135°20'6 6.4
2017-Jan-23 00:33N 34°41' E 135°13'1 0.6
2017-Jan-22 23:33N 34°41' E 135°12'  
2017-Jan-20 05:33N 34°42' E 135°13'7 7.5
2017-Jan-20 04:33N 34°37' E 135°06'1010.0
2017-Jan-20 03:33N 34°28' E 134°60'9 9.5
2017-Jan-20 02:34N 34°32' E 135°10'9 8.7
2017-Jan-20 01:33N 34°32' E 135°21'8 7.9
2017-Jan-20 00:33N 34°40' E 135°21'6 5.7
2017-Jan-19 23:33N 34°41' E 135°14'1 0.1
2017-Jan-19 05:06N 34°41' E 135°12'3 5.9
2017-Jan-19 04:33N 34°40' E 135°16'3 3.4
2017-Jan-19 03:33N 34°40' E 135°20'5 5.3
2017-Jan-19 02:33N 34°35' E 135°17'1212.1
2017-Jan-19 01:32N 34°27' E 135°05'1313.4
2017-Jan-19 00:33N 34°40' E 135°11'2 2.1
2017-Jan-18 23:33N 34°41' E 135°12'0 0.0
2017-Jan-18 05:29N 34°41' E 135°12'6 6.6
2017-Jan-18 04:32N 34°36' E 135°16'5 4.6
2017-Jan-18 03:33N 34°35' E 135°21'3 3.3
2017-Jan-18 02:33N 34°33' E 135°18'1211.9
2017-Jan-18 01:34N 34°28' E 135°05'1212.1
2017-Jan-18 00:33N 34°39' E 135°11'2 2.3
2017-Jan-17 23:33N 34°41' E 135°12'0 0.0
2017-Jan-17 05:33N 34°41' E 135°12'6 6.3
2017-Jan-17 04:33N 34°35' E 135°14'4 4.4
2017-Jan-17 03:33N 34°38' E 135°11'3 3.0
2017-Jan-17 02:33N 34°36' E 135°08'7 7.4
2017-Jan-17 01:32N 34°29' E 135°08'1111.3
2017-Jan-17 00:33N 34°39' E 135°11'2 2.2
2017-Jan-16 23:33N 34°41' E 135°12'0 0.0
2017-Jan-16 05:32N 34°41' E 135°12'7 7.1
2017-Jan-16 04:33N 34°35' E 135°15'5 4.9
2017-Jan-16 03:31N 34°32' E 135°20'3 3.4
2017-Jan-16 02:33N 34°31' E 135°16'1110.7
2017-Jan-16 01:33N 34°30' E 135°03'1313.2
2017-Jan-16 00:33N 34°41' E 135°13'1 0.6
2017-Jan-15 23:33N 34°41' E 135°12'  

Dump ship's entire track history